createdAt,value
2023-04-11T00:00:20.279Z,41.24
2023-04-11T00:03:23.360Z,41.13
2023-04-11T00:06:27.589Z,41.57
2023-04-11T00:09:30.241Z,41.67
2023-04-11T00:12:32.718Z,41.58
2023-04-11T00:15:37.593Z,41.85
2023-04-11T00:18:44.956Z,41.97
2023-04-11T00:21:47.502Z,41.70
2023-04-11T00:24:50.157Z,42.04
2023-04-11T00:27:52.841Z,42.09
2023-04-11T00:30:56.805Z,42.35
2023-04-11T00:33:59.278Z,42.18
2023-04-11T00:37:02.007Z,42.01
2023-04-11T00:40:07.569Z,41.63
2023-04-11T00:43:10.319Z,41.22
2023-04-11T00:46:15.048Z,41.57
2023-04-11T00:49:17.658Z,41.50
2023-04-11T00:52:21.281Z,42.28
2023-04-11T00:55:24.587Z,42.50
2023-04-11T00:58:27.576Z,41.87
2023-04-11T01:01:36.138Z,41.95
2023-04-11T01:04:39.050Z,42.11
2023-04-11T01:07:45.071Z,41.73
2023-04-11T01:10:47.632Z,41.92
2023-04-11T01:13:50.958Z,42.21
2023-04-11T01:16:56.448Z,42.06
2023-04-11T01:19:59.352Z,43.63
2023-04-11T01:23:03.154Z,43.63
2023-04-11T01:26:07.818Z,43.31
2023-04-11T01:29:10.379Z,43.19
2023-04-11T01:32:12.843Z,43.14
2023-04-11T01:35:15.517Z,44.29
2023-04-11T01:38:18.016Z,48.34
2023-04-11T01:41:22.560Z,51.46
2023-04-11T01:44:25.457Z,53.35
2023-04-11T01:47:28.015Z,54.75
2023-04-11T01:50:30.637Z,56.03
2023-04-11T01:53:33.703Z,55.89
2023-04-11T01:56:37.623Z,56.21
2023-04-11T01:59:40.238Z,55.51
2023-04-11T02:02:42.773Z,56.87
2023-04-11T02:05:45.475Z,58.72
2023-04-11T02:08:48.011Z,58.60
2023-04-11T02:11:52.010Z,60.79
2023-04-11T02:14:54.546Z,62.33
2023-04-11T02:18:00.380Z,62.59
2023-04-11T02:21:03.274Z,63.72
2023-04-11T02:24:06.037Z,66.39
2023-04-11T02:27:10.437Z,69.84
2023-04-11T02:30:13.384Z,72.67
2023-04-11T02:33:15.960Z,74.40
2023-04-11T02:36:18.662Z,76.22
2023-04-11T02:39:23.633Z,76.76
2023-04-11T02:42:27.456Z,78.56
2023-04-11T02:45:30.351Z,78.44
2023-04-11T02:48:32.921Z,79.18
2023-04-11T02:51:35.460Z,78.66
2023-04-11T02:54:37.998Z,78.82
2023-04-11T02:57:41.848Z,79.26
2023-04-11T03:00:44.415Z,79.68
2023-04-11T03:03:47.030Z,78.16
2023-04-11T03:06:49.696Z,76.55
2023-04-11T03:09:52.414Z,77.04
2023-04-11T03:12:56.311Z,77.79
2023-04-11T03:15:59.243Z,78.38
2023-04-11T03:19:01.863Z,78.47
2023-04-11T03:22:05.797Z,78.23
2023-04-11T03:25:09.306Z,78.66
2023-04-11T03:28:13.310Z,79.52
2023-04-11T03:31:15.976Z,80.20
2023-04-11T03:34:18.938Z,80.04
2023-04-11T03:37:21.421Z,80.79
2023-04-11T03:40:24.200Z,81.17
2023-04-11T03:43:28.106Z,81.21
2023-04-11T03:46:30.781Z,80.52
2023-04-11T03:49:33.394Z,80.17
2023-04-11T03:52:36.154Z,80.65
2023-04-11T03:55:38.679Z,79.92
2023-04-11T03:58:43.740Z,80.24
2023-04-11T04:01:46.317Z,80.13
2023-04-11T04:04:54.964Z,78.94
2023-04-11T04:07:57.845Z,78.35
2023-04-11T04:11:00.422Z,77.38
2023-04-11T04:14:04.895Z,76.82
2023-04-11T04:17:08.277Z,77.33
2023-04-11T04:20:11.445Z,77.06
2023-04-11T04:23:17.895Z,75.89
2023-04-11T04:26:24.745Z,76.54
2023-04-11T04:29:34.145Z,76.75
2023-04-11T04:32:38.328Z,76.19
2023-04-11T04:35:41.118Z,76.04
2023-04-11T04:38:43.765Z,76.18
2023-04-11T04:41:48.611Z,75.32
2023-04-11T04:44:53.790Z,75.77
2023-04-11T04:47:56.448Z,74.67
2023-04-11T04:50:59.060Z,72.89
2023-04-11T04:54:01.680Z,72.57
2023-04-11T04:57:04.752Z,72.56
2023-04-11T05:00:11.687Z,72.45
2023-04-11T05:03:17.274Z,73.44
2023-04-11T05:06:20.046Z,75.74
2023-04-11T05:09:22.813Z,79.05
2023-04-11T05:12:27.128Z,79.30
2023-04-11T05:15:31.335Z,80.00
2023-04-11T05:18:33.908Z,80.38
2023-04-11T05:21:37.428Z,80.08
2023-04-11T05:24:40.428Z,80.13
2023-04-11T05:27:43.044Z,80.55
2023-04-11T05:30:47.035Z,82.55
2023-04-11T05:33:49.601Z,80.51
2023-04-11T05:36:52.214Z,78.35
2023-04-11T05:39:56.285Z,78.88
2023-04-11T05:42:58.817Z,78.43
2023-04-11T05:46:02.773Z,77.04
2023-04-11T05:49:05.724Z,74.48
2023-04-11T05:52:08.399Z,74.80
2023-04-11T05:55:11.715Z,72.95
2023-04-11T05:58:14.380Z,73.07
2023-04-11T06:01:19.430Z,71.77
2023-04-11T06:04:22.219Z,72.82
2023-04-11T06:07:25.075Z,72.31
2023-04-11T06:10:27.917Z,71.42
2023-04-11T06:13:30.455Z,70.67
2023-04-11T06:16:36.681Z,69.15
2023-04-11T06:19:39.435Z,70.33
2023-04-11T06:22:41.968Z,70.00
2023-04-11T06:25:44.516Z,69.42
2023-04-11T06:28:47.002Z,69.84
2023-04-11T06:31:50.949Z,69.75
2023-04-11T06:34:53.622Z,67.52
2023-04-11T06:37:56.209Z,67.77
2023-04-11T06:40:58.703Z,67.57
2023-04-11T06:44:01.269Z,67.17
2023-04-11T06:47:05.573Z,65.10
2023-04-11T06:50:09.188Z,65.78
2023-04-11T06:53:11.636Z,66.18
2023-04-11T06:56:14.256Z,66.23
2023-04-11T06:59:16.853Z,65.70
2023-04-11T07:02:22.021Z,64.20
2023-04-11T07:05:24.726Z,65.00
2023-04-11T07:08:27.503Z,63.23
2023-04-11T07:11:29.971Z,62.24
2023-04-11T07:14:32.922Z,61.19
2023-04-11T07:17:37.007Z,61.15
2023-04-11T07:20:39.494Z,60.33
2023-04-11T07:23:43.174Z,60.00
2023-04-11T07:26:46.836Z,60.37
2023-04-11T07:29:49.621Z,59.28
2023-04-11T07:32:53.751Z,59.60
2023-04-11T07:35:56.459Z,59.26
2023-04-11T07:38:59.838Z,59.52
2023-04-11T07:42:02.510Z,59.85
2023-04-11T07:45:06.138Z,58.17
2023-04-11T07:48:10.049Z,57.90
2023-04-11T07:51:13.206Z,57.21
2023-04-11T07:54:15.939Z,55.68
2023-04-11T07:57:18.785Z,55.39
2023-04-11T08:00:22.871Z,55.51
2023-04-11T08:03:27.221Z,54.58
2023-04-11T08:06:31.516Z,54.34
2023-04-11T08:09:34.417Z,51.44
2023-04-11T08:12:37.181Z,52.07
2023-04-11T08:15:39.776Z,50.35
2023-04-11T08:18:45.825Z,51.12
2023-04-11T08:21:48.600Z,51.34
2023-04-11T08:24:51.202Z,49.96
2023-04-11T08:27:53.787Z,49.80
2023-04-11T08:30:58.428Z,49.75
2023-04-11T08:34:04.428Z,50.24
2023-04-11T08:37:08.820Z,48.59
2023-04-11T08:40:11.810Z,48.38
2023-04-11T08:43:14.682Z,48.78
2023-04-11T08:46:18.409Z,48.80
2023-04-11T08:49:22.558Z,49.19
2023-04-11T08:52:25.573Z,47.86
2023-04-11T08:55:28.115Z,45.07
2023-04-11T08:58:32.253Z,45.00
2023-04-11T09:01:37.429Z,45.34
2023-04-11T09:04:42.105Z,44.09
2023-04-11T09:07:50.026Z,43.96
2023-04-11T09:10:52.678Z,42.91
2023-04-11T09:14:08.416Z,43.89
2023-04-11T09:17:13.650Z,43.51
2023-04-11T09:20:22.344Z,42.04
2023-04-11T09:23:27.228Z,41.55
2023-04-11T09:26:30.745Z,41.48
2023-04-11T09:29:38.208Z,41.01
2023-04-11T09:32:40.865Z,42.60
2023-04-11T09:35:44.867Z,42.96
2023-04-11T09:38:47.546Z,41.77
2023-04-11T09:41:50.130Z,41.86
2023-04-11T09:44:52.674Z,43.52
2023-04-11T09:47:57.077Z,41.77
2023-04-11T09:51:02.213Z,42.92
2023-04-11T09:54:06.109Z,41.32
2023-04-11T09:57:09.398Z,41.50
2023-04-11T10:00:17.121Z,41.10
2023-04-11T10:03:22.805Z,41.10
2023-04-11T10:06:33.764Z,40.69
2023-04-11T10:09:39.143Z,39.06
2023-04-11T10:12:41.833Z,40.07
2023-04-11T10:16:06.106Z,38.81
2023-04-11T10:19:26.208Z,38.66
2023-04-11T10:23:08.878Z,38.54
2023-04-11T10:26:14.334Z,40.22
2023-04-11T10:29:51.403Z,40.97
2023-04-11T10:33:14.031Z,44.06
2023-04-11T10:36:17.181Z,45.77
2023-04-11T10:40:00.513Z,46.30
2023-04-11T10:43:20.815Z,45.68
2023-04-11T10:46:24.959Z,45.07
2023-04-11T10:49:35.609Z,44.54
2023-04-11T10:52:39.046Z,44.89
2023-04-11T10:55:47.103Z,43.39
2023-04-11T10:58:53.332Z,41.87
2023-04-11T11:01:56.495Z,41.21
2023-04-11T11:04:59.265Z,39.98
2023-04-11T11:08:01.845Z,39.46
2023-04-11T11:11:06.707Z,37.57
2023-04-11T11:14:10.608Z,37.18
2023-04-11T11:17:13.894Z,37.98
2023-04-11T11:20:19.921Z,37.75
2023-04-11T11:23:22.572Z,37.76
2023-04-11T11:26:36.662Z,36.90
2023-04-11T11:29:40.688Z,36.35
2023-04-11T11:32:43.513Z,35.41
2023-04-11T11:35:54.043Z,35.64
2023-04-11T11:38:57.134Z,37.25
2023-04-11T11:41:59.908Z,36.12
2023-04-11T11:45:16.491Z,36.22
2023-04-11T11:48:23.327Z,36.17
2023-04-11T11:51:26.664Z,34.33
2023-04-11T11:54:29.332Z,33.33
2023-04-11T11:57:32.237Z,33.14
2023-04-11T12:00:39.064Z,32.50
2023-04-11T12:03:41.815Z,32.31
2023-04-11T12:06:45.826Z,32.86
2023-04-11T12:09:49.025Z,32.28
2023-04-11T12:12:53.264Z,31.15
2023-04-11T12:16:01.342Z,32.04
2023-04-11T12:19:04.645Z,32.64
2023-04-11T12:22:07.207Z,30.99
2023-04-11T12:25:11.674Z,30.81
2023-04-11T12:28:14.779Z,31.47
2023-04-11T12:31:19.980Z,31.27
2023-04-11T12:34:22.901Z,31.16
2023-04-11T12:37:25.675Z,30.43
2023-04-11T12:40:29.750Z,32.13
2023-04-11T12:43:32.377Z,33.99
2023-04-11T12:46:36.436Z,32.52
2023-04-11T12:49:39.795Z,31.31
2023-04-11T12:52:42.539Z,30.83
2023-04-11T12:55:45.116Z,30.90
2023-04-11T12:58:47.801Z,28.95
2023-04-11T13:01:52.112Z,28.45
2023-04-11T13:04:55.178Z,27.48
2023-04-11T13:07:57.980Z,28.08
2023-04-11T13:11:00.607Z,29.91
2023-04-11T13:14:03.211Z,28.46
2023-04-11T13:17:07.433Z,29.78
2023-04-11T13:20:11.662Z,28.91
2023-04-11T13:23:16.635Z,29.47
2023-04-11T13:26:20.018Z,28.77
2023-04-11T13:29:22.632Z,29.73
2023-04-11T13:32:26.679Z,28.51
2023-04-11T13:35:29.746Z,28.96
2023-04-11T13:38:33.361Z,24.50
2023-04-11T13:41:36.155Z,22.19
2023-04-11T13:44:39.106Z,19.16
2023-04-11T13:47:44.978Z,19.25
2023-04-11T13:50:47.777Z,16.62
2023-04-11T13:53:50.384Z,15.99
2023-04-11T13:56:53.145Z,17.12
2023-04-11T13:59:55.835Z,19.13
2023-04-11T14:03:00.010Z,19.92
2023-04-11T14:06:03.449Z,22.66
2023-04-11T14:09:06.271Z,22.43
2023-04-11T14:12:08.942Z,21.04
2023-04-11T14:15:12.288Z,21.25
2023-04-11T14:18:16.092Z,20.14
2023-04-11T14:21:18.740Z,23.26
2023-04-11T14:24:22.364Z,20.66
2023-04-11T14:27:25.308Z,17.66
2023-04-11T14:30:28.045Z,16.43
2023-04-11T14:33:32.260Z,19.97
2023-04-11T14:36:34.861Z,18.77
2023-04-11T14:39:38.954Z,20.98
2023-04-11T14:42:41.659Z,24.89
2023-04-11T14:45:44.221Z,25.00
2023-04-11T14:48:48.292Z,22.49
2023-04-11T14:51:50.989Z,21.07
2023-04-11T14:54:53.629Z,22.04
2023-04-11T14:57:56.966Z,19.63
2023-04-11T15:00:59.553Z,17.92
2023-04-11T15:04:03.714Z,18.21
2023-04-11T15:07:06.507Z,16.09
2023-04-11T15:10:10.109Z,16.62
2023-04-11T15:13:12.897Z,20.59
2023-04-11T15:16:16.264Z,20.57
2023-04-11T15:19:21.351Z,23.14
2023-04-11T15:22:24.040Z,20.02
2023-04-11T15:25:26.680Z,21.52
2023-04-11T15:28:32.842Z,21.72
2023-04-11T15:31:37.862Z,19.56
2023-04-11T15:34:42.691Z,18.20
2023-04-11T15:37:45.385Z,21.03
2023-04-11T15:40:50.408Z,22.78
2023-04-11T15:43:53.096Z,21.91
2023-04-11T15:46:55.792Z,22.63
2023-04-11T15:50:01.955Z,21.95
2023-04-11T15:53:04.634Z,22.92
2023-04-11T15:56:08.623Z,22.36
2023-04-11T15:59:13.012Z,22.13
2023-04-11T16:02:15.802Z,19.42
2023-04-11T16:05:21.820Z,18.02
2023-04-11T16:08:26.070Z,18.74
2023-04-11T16:11:28.853Z,19.15
2023-04-11T16:14:31.583Z,19.40
2023-04-11T16:17:34.564Z,20.82
2023-04-11T16:20:41.009Z,21.81
2023-04-11T16:23:43.622Z,22.68
2023-04-11T16:26:46.356Z,24.08
2023-04-11T16:29:48.932Z,25.86
2023-04-11T16:32:51.561Z,25.81
2023-04-11T16:35:55.662Z,25.69
2023-04-11T16:38:58.211Z,25.59
2023-04-11T16:42:01.761Z,26.88
2023-04-11T16:45:04.949Z,27.83
2023-04-11T16:48:09.366Z,28.88
2023-04-11T16:51:13.643Z,29.61
2023-04-11T16:54:16.256Z,29.47
2023-04-11T16:57:19.346Z,30.80
2023-04-11T17:00:22.266Z,30.78
2023-04-11T17:03:25.463Z,30.92
2023-04-11T17:06:29.430Z,31.83
2023-04-11T17:09:32.076Z,32.24
2023-04-11T17:12:34.781Z,32.51
2023-04-11T17:15:37.546Z,32.79
2023-04-11T17:18:40.905Z,33.23
2023-04-11T17:21:44.812Z,33.35
2023-04-11T17:24:47.538Z,33.94
2023-04-11T17:27:50.124Z,33.88
2023-04-11T17:30:53.102Z,34.01
2023-04-11T17:33:56.263Z,34.28
2023-04-11T17:37:00.553Z,34.92
2023-04-11T17:40:11.435Z,35.67
2023-04-11T17:43:14.179Z,36.21
2023-04-11T17:46:16.927Z,35.91
2023-04-11T17:49:19.776Z,37.00
2023-04-11T17:52:23.678Z,36.51
2023-04-11T17:55:26.520Z,37.24
2023-04-11T17:58:29.097Z,37.33
2023-04-11T18:01:32.467Z,37.09
2023-04-11T18:04:35.674Z,37.57
2023-04-11T18:07:41.802Z,37.92
2023-04-11T18:10:44.358Z,37.76
2023-04-11T18:13:49.896Z,38.36
2023-04-11T18:16:52.963Z,38.05
2023-04-11T18:19:55.548Z,38.66
2023-04-11T18:22:59.497Z,39.43
2023-04-11T18:26:02.027Z,40.19
2023-04-11T18:29:04.697Z,40.45
2023-04-11T18:32:07.156Z,41.14
2023-04-11T18:35:11.780Z,41.04
2023-04-11T18:38:15.870Z,41.94
2023-04-11T18:41:18.911Z,43.08
2023-04-11T18:44:22.148Z,43.38
2023-04-11T18:47:24.839Z,44.06
2023-04-11T18:50:28.055Z,44.79
2023-04-11T18:53:32.502Z,44.51
2023-04-11T18:56:37.190Z,44.88
2023-04-11T18:59:43.880Z,45.40
2023-04-11T19:02:47.536Z,45.23
2023-04-11T19:05:50.623Z,45.34
2023-04-11T19:08:54.881Z,46.29
2023-04-11T19:11:58.131Z,46.03
2023-04-11T19:15:00.889Z,45.39
2023-04-11T19:18:03.506Z,46.17
2023-04-11T19:21:07.596Z,46.75
2023-04-11T19:24:11.486Z,47.29
2023-04-11T19:27:18.459Z,47.68
2023-04-11T19:30:21.186Z,47.43
2023-04-11T19:33:26.095Z,47.90
2023-04-11T19:36:29.404Z,47.74
2023-04-11T19:39:38.188Z,47.13
2023-04-11T19:42:41.588Z,47.57
2023-04-11T19:45:44.830Z,47.76
2023-04-11T19:48:47.503Z,47.66
2023-04-11T19:51:50.944Z,47.93
2023-04-11T19:54:54.878Z,47.45
2023-04-11T19:57:57.631Z,47.50
2023-04-11T20:01:00.362Z,47.21
2023-04-11T20:04:03.475Z,46.86
2023-04-11T20:07:06.259Z,46.99
2023-04-11T20:10:11.314Z,48.61
2023-04-11T20:13:15.764Z,48.14
2023-04-11T20:16:21.371Z,49.18
2023-04-11T20:19:27.586Z,49.24
2023-04-11T20:22:30.170Z,49.07
2023-04-11T20:25:34.764Z,49.09
2023-04-11T20:28:37.678Z,49.23
2023-04-11T20:31:40.466Z,49.11
2023-04-11T20:34:43.041Z,48.83
2023-04-11T20:37:45.742Z,49.53
2023-04-11T20:40:49.703Z,49.79
2023-04-11T20:43:52.345Z,49.75
2023-04-11T20:46:56.878Z,49.46
2023-04-11T20:50:03.276Z,49.94
2023-04-11T20:53:06.018Z,49.42
2023-04-11T20:56:11.771Z,49.98
2023-04-11T20:59:14.625Z,50.18
2023-04-11T21:02:17.642Z,50.49
2023-04-11T21:05:22.319Z,50.94
2023-04-11T21:08:24.895Z,50.22
2023-04-11T21:11:29.037Z,50.09
2023-04-11T21:14:33.156Z,49.98
2023-04-11T21:17:37.254Z,49.95
2023-04-11T21:20:40.472Z,50.29
2023-04-11T21:23:43.654Z,50.32
2023-04-11T21:26:47.972Z,50.40
2023-04-11T21:29:50.805Z,50.17
2023-04-11T21:32:53.460Z,50.31
2023-04-11T21:35:56.719Z,50.30
2023-04-11T21:38:59.288Z,50.61
2023-04-11T21:42:03.376Z,50.89
2023-04-11T21:45:06.772Z,50.92
2023-04-11T21:48:09.516Z,51.08
2023-04-11T21:51:12.138Z,50.79
2023-04-11T21:54:14.753Z,50.98
2023-04-11T21:57:18.743Z,50.93
2023-04-11T22:00:21.613Z,50.72
2023-04-11T22:03:25.003Z,50.45
2023-04-11T22:06:30.376Z,49.07
2023-04-11T22:09:33.174Z,48.52
2023-04-11T22:12:37.438Z,47.20
2023-04-11T22:15:40.180Z,47.47
2023-04-11T22:18:49.692Z,47.28
2023-04-11T22:21:55.792Z,46.65
2023-04-11T22:24:59.452Z,45.96
2023-04-11T22:28:03.965Z,45.44
2023-04-11T22:31:07.523Z,45.12
2023-04-11T22:34:10.124Z,45.10
2023-04-11T22:37:12.762Z,45.04
2023-04-11T22:40:22.015Z,45.57
2023-04-11T22:43:26.012Z,45.95
2023-04-11T22:46:30.853Z,47.48
2023-04-11T22:49:33.695Z,48.32
2023-04-11T22:52:37.810Z,48.45
2023-04-11T22:55:40.537Z,49.07
2023-04-11T22:58:46.038Z,49.21
2023-04-11T23:01:48.828Z,49.32
2023-04-11T23:04:51.616Z,49.26
2023-04-11T23:07:54.262Z,48.57
2023-04-11T23:10:56.832Z,47.92
2023-04-11T23:14:01.571Z,47.35
2023-04-11T23:17:04.189Z,46.90
2023-04-11T23:20:09.966Z,46.44
2023-04-11T23:23:12.581Z,46.33
2023-04-11T23:26:18.945Z,45.85
2023-04-11T23:29:22.985Z,45.24
2023-04-11T23:32:25.605Z,45.03
2023-04-11T23:35:28.298Z,45.24
2023-04-11T23:38:31.845Z,45.20
2023-04-11T23:41:34.614Z,44.96
2023-04-11T23:44:38.748Z,45.00
2023-04-11T23:47:41.535Z,44.52
2023-04-11T23:50:44.114Z,43.78
2023-04-11T23:53:46.750Z,43.65
2023-04-11T23:56:49.410Z,43.87
2023-04-11T23:59:53.507Z,44.26
